createdAt,value
2022-10-23T00:00:03.371Z,0
2022-10-23T00:01:03.061Z,0
2022-10-23T00:02:03.254Z,0
2022-10-23T00:03:03.199Z,0
2022-10-23T00:04:03.429Z,0
2022-10-23T00:05:03.423Z,0
2022-10-23T00:06:03.152Z,0
2022-10-23T00:07:06.078Z,0
2022-10-23T00:08:03.269Z,0
2022-10-23T00:09:03.432Z,0
2022-10-23T00:10:03.282Z,0
2022-10-23T00:11:03.143Z,0
2022-10-23T00:12:03.146Z,0
2022-10-23T00:13:03.163Z,0
2022-10-23T00:14:03.544Z,0
2022-10-23T00:15:03.205Z,0
2022-10-23T00:16:03.182Z,0
2022-10-23T00:17:03.118Z,0
2022-10-23T00:18:06.171Z,0
2022-10-23T00:19:03.432Z,0
2022-10-23T00:20:03.427Z,0
2022-10-23T00:21:03.164Z,0
2022-10-23T00:22:03.079Z,0
2022-10-23T00:23:03.114Z,0
2022-10-23T00:24:03.501Z,0
2022-10-23T00:25:03.074Z,0
2022-10-23T00:26:03.142Z,0
2022-10-23T00:27:03.046Z,0
2022-10-23T00:28:03.153Z,0
2022-10-23T00:29:09.092Z,0
2022-10-23T00:30:03.216Z,0
2022-10-23T00:31:03.056Z,0
2022-10-23T00:32:03.141Z,0
2022-10-23T00:33:03.203Z,0
2022-10-23T00:34:03.421Z,0
2022-10-23T00:35:03.441Z,0
2022-10-23T00:36:03.078Z,0
2022-10-23T00:37:03.076Z,0
2022-10-23T00:38:03.169Z,0
2022-10-23T00:39:03.429Z,0
2022-10-23T00:40:06.105Z,0
2022-10-23T00:41:03.254Z,0
2022-10-23T00:42:03.054Z,0
2022-10-23T00:43:03.133Z,0
2022-10-23T00:44:03.497Z,0
2022-10-23T00:45:03.216Z,0
2022-10-23T00:46:03.091Z,0
2022-10-23T00:47:03.077Z,0
2022-10-23T00:48:03.167Z,0
2022-10-23T00:49:03.899Z,0
2022-10-23T00:50:03.539Z,0
2022-10-23T00:51:06.138Z,0
2022-10-23T00:52:03.141Z,0
2022-10-23T00:53:03.071Z,0
2022-10-23T00:55:20.029Z,0
2022-10-23T00:56:19.980Z,0
2022-10-23T00:57:20.178Z,0
2022-10-23T00:58:20.207Z,0
2022-10-23T00:59:20.361Z,0
2022-10-23T01:00:23.174Z,0
2022-10-23T01:01:20.227Z,0
2022-10-23T01:02:20.281Z,0
2022-10-23T01:03:20.185Z,0
2022-10-23T01:04:20.391Z,0
2022-10-23T01:05:20.356Z,0
2022-10-23T01:06:19.984Z,0
2022-10-23T01:07:20.076Z,0
2022-10-23T01:08:20.128Z,0
2022-10-23T01:09:20.431Z,0
2022-10-23T01:10:20.076Z,0
2022-10-23T01:11:23.294Z,0
2022-10-23T01:12:20.032Z,0
2022-10-23T01:13:19.977Z,0
2022-10-23T01:14:20.414Z,0
2022-10-23T01:15:20.087Z,0
2022-10-23T01:16:19.964Z,0
2022-10-23T01:17:19.991Z,0
2022-10-23T01:18:19.987Z,0
2022-10-23T01:19:20.417Z,0
2022-10-23T01:20:20.354Z,0
2022-10-23T01:21:20.177Z,0
2022-10-23T01:22:26.190Z,0
2022-10-23T01:23:20.090Z,0
2022-10-23T01:24:20.430Z,0
2022-10-23T01:25:20.187Z,0
2022-10-23T01:26:20.140Z,0
2022-10-23T01:27:20.114Z,0
2022-10-23T01:28:20.091Z,0
2022-10-23T01:29:20.497Z,0
2022-10-23T01:30:20.095Z,0
2022-10-23T01:31:20.100Z,0
2022-10-23T01:32:20.070Z,0
2022-10-23T01:33:23.032Z,0
2022-10-23T01:34:20.343Z,0
2022-10-23T01:35:20.345Z,0
2022-10-23T01:36:19.979Z,0
2022-10-23T01:37:19.969Z,0
2022-10-23T01:38:19.973Z,0
2022-10-23T01:39:20.346Z,0
2022-10-23T01:40:20.021Z,0
2022-10-23T01:41:19.975Z,0
2022-10-23T01:42:20.115Z,0
2022-10-23T01:43:20.105Z,0
2022-10-23T01:44:26.014Z,0
2022-10-23T01:45:20.090Z,0
2022-10-23T01:46:20.101Z,0
2022-10-23T01:48:27.656Z,0
2022-10-23T01:49:27.167Z,0
2022-10-23T01:50:27.384Z,0
2022-10-23T01:51:27.237Z,0
2022-10-23T01:52:27.178Z,0
2022-10-23T01:53:33.116Z,0
2022-10-23T01:54:27.105Z,0
2022-10-23T01:55:27.047Z,0
2022-10-23T01:56:27.008Z,0
2022-10-23T01:57:27.088Z,0
2022-10-23T01:58:27.495Z,0
2022-10-23T01:59:27.018Z,0
2022-10-23T02:00:27.031Z,0
2022-10-23T02:01:27.272Z,0
2022-10-23T02:02:27.164Z,0
2022-10-23T02:03:27.447Z,0
2022-10-23T02:04:30.079Z,0
2022-10-23T02:05:27.411Z,0
2022-10-23T02:06:27.128Z,0
2022-10-23T02:07:27.013Z,0
2022-10-23T02:08:27.450Z,0
2022-10-23T02:09:27.158Z,0
2022-10-23T02:10:27.128Z,0
2022-10-23T02:11:27.088Z,0
2022-10-23T02:13:33.912Z,0
2022-10-23T02:14:33.972Z,0
2022-10-23T02:15:34.037Z,0
2022-10-23T02:16:33.922Z,0
2022-10-23T02:17:33.943Z,0
2022-10-23T02:18:39.937Z,0
2022-10-23T02:19:34.022Z,0
2022-10-23T02:20:34.319Z,0
2022-10-23T02:21:33.992Z,0
2022-10-23T02:22:33.918Z,0
2022-10-23T02:23:34.317Z,0
2022-10-23T02:24:33.823Z,0
2022-10-23T02:25:33.821Z,0
2022-10-23T02:26:33.833Z,0
2022-10-23T02:27:33.892Z,0
2022-10-23T02:28:34.272Z,0
2022-10-23T02:29:36.837Z,0
2022-10-23T02:30:33.912Z,0
2022-10-23T02:31:33.826Z,0
2022-10-23T02:32:33.942Z,0
2022-10-23T02:33:34.291Z,0
2022-10-23T02:34:33.926Z,0
2022-10-23T02:35:34.194Z,0
2022-10-23T02:36:33.956Z,0
2022-10-23T02:37:34.057Z,0
2022-10-23T02:38:34.193Z,0
2022-10-23T02:39:33.881Z,0
2022-10-23T02:40:37.011Z,0
2022-10-23T02:41:34.026Z,0
2022-10-23T02:42:33.918Z,0
2022-10-23T02:43:34.265Z,0
2022-10-23T02:44:34.050Z,0
2022-10-23T02:45:34.056Z,0
2022-10-23T02:46:33.989Z,0
2022-10-23T02:47:33.988Z,0
2022-10-23T02:48:34.197Z,0
2022-10-23T02:49:33.985Z,0
2022-10-23T02:50:33.952Z,0
2022-10-23T02:51:36.864Z,0
2022-10-23T02:52:33.896Z,0
2022-10-23T02:53:34.272Z,0
2022-10-23T02:54:33.945Z,0
2022-10-23T02:55:33.933Z,0
2022-10-23T02:56:36.631Z,0
2022-10-23T02:57:33.968Z,0
2022-10-23T02:58:34.273Z,0
2022-10-23T02:59:34.005Z,0
2022-10-23T03:00:33.904Z,0
2022-10-23T03:01:34.012Z,0
2022-10-23T03:02:36.866Z,0
2022-10-23T03:03:34.206Z,0
2022-10-23T03:04:33.918Z,0
2022-10-23T03:05:34.292Z,0
2022-10-23T03:06:33.988Z,0
2022-10-23T03:07:33.957Z,0
2022-10-23T03:08:34.191Z,0
2022-10-23T03:09:33.836Z,0
2022-10-23T03:10:33.839Z,0
2022-10-23T03:11:33.818Z,0
2022-10-23T03:12:33.813Z,0
2022-10-23T03:13:37.220Z,0
2022-10-23T03:14:33.916Z,0
2022-10-23T03:15:33.817Z,0
2022-10-23T03:16:33.837Z,0
2022-10-23T03:17:33.940Z,0
2022-10-23T03:18:34.230Z,0
2022-10-23T03:19:33.953Z,0
2022-10-23T03:20:34.260Z,0
2022-10-23T03:21:34.004Z,0
2022-10-23T03:22:33.983Z,0
2022-10-23T03:23:34.191Z,0
2022-10-23T03:24:36.966Z,0
2022-10-23T03:25:34.083Z,0
2022-10-23T03:26:34.059Z,0
2022-10-23T03:27:34.009Z,0
2022-10-23T03:28:34.035Z,0
2022-10-23T03:29:34.006Z,0
2022-10-23T03:30:33.927Z,0
2022-10-23T03:31:33.973Z,0
2022-10-23T03:32:34.040Z,0
2022-10-23T03:33:34.194Z,0
2022-10-23T03:34:34.049Z,0
2022-10-23T03:35:39.970Z,0
2022-10-23T03:36:33.893Z,0
2022-10-23T03:37:33.968Z,0
2022-10-23T03:38:34.261Z,0
2022-10-23T03:39:33.915Z,0
2022-10-23T03:40:33.844Z,0
2022-10-23T03:41:33.855Z,0
2022-10-23T03:42:33.965Z,0
2022-10-23T03:43:34.185Z,0
2022-10-23T03:44:33.823Z,0
2022-10-23T03:45:33.981Z,0
2022-10-23T03:46:36.883Z,0
2022-10-23T03:47:33.935Z,0
2022-10-23T03:48:34.259Z,0
2022-10-23T03:49:33.935Z,0
2022-10-23T03:50:34.268Z,0
2022-10-23T03:51:34.006Z,0
2022-10-23T03:52:33.835Z,0
2022-10-23T03:53:34.268Z,0
2022-10-23T03:54:33.913Z,0
2022-10-23T03:55:33.834Z,0
2022-10-23T03:56:33.833Z,0
2022-10-23T03:57:36.891Z,0
2022-10-23T03:58:34.185Z,0
2022-10-23T03:59:33.918Z,0
2022-10-23T04:00:33.887Z,0
2022-10-23T04:01:34.068Z,0
2022-10-23T04:02:33.944Z,0
2022-10-23T04:03:34.187Z,0
2022-10-23T04:04:33.964Z,0
2022-10-23T04:05:34.190Z,0
2022-10-23T04:06:33.938Z,0
2022-10-23T04:07:33.914Z,0
2022-10-23T04:08:36.963Z,0
2022-10-23T04:09:33.926Z,0
2022-10-23T04:10:33.866Z,0
2022-10-23T04:11:33.960Z,0
2022-10-23T04:12:34.035Z,0
2022-10-23T04:13:34.189Z,0
2022-10-23T04:14:33.947Z,0
2022-10-23T04:15:33.981Z,0
2022-10-23T04:16:33.971Z,0
2022-10-23T04:17:33.823Z,0
2022-10-23T04:18:34.263Z,0
2022-10-23T04:19:36.833Z,0
2022-10-23T04:20:34.188Z,0
2022-10-23T04:21:33.915Z,0
2022-10-23T04:22:33.944Z,0
2022-10-23T04:23:34.269Z,0
2022-10-23T04:24:34.000Z,0
2022-10-23T04:25:34.069Z,0
2022-10-23T04:26:33.893Z,0
2022-10-23T04:27:33.854Z,0
2022-10-23T04:28:34.266Z,0
2022-10-23T04:29:34.006Z,0
2022-10-23T04:30:36.914Z,0
2022-10-23T04:31:34.025Z,0
2022-10-23T04:32:33.924Z,0
2022-10-23T04:33:34.519Z,0
2022-10-23T04:34:33.948Z,0
2022-10-23T04:35:34.263Z,0
2022-10-23T04:36:33.849Z,0
2022-10-23T04:37:33.933Z,0
2022-10-23T04:38:33.881Z,0
2022-10-23T04:39:33.847Z,0
2022-10-23T04:40:33.841Z,0
2022-10-23T04:41:36.821Z,0
2022-10-23T04:42:33.980Z,0
2022-10-23T04:43:34.257Z,0
2022-10-23T04:44:33.914Z,0
2022-10-23T04:45:33.827Z,0
2022-10-23T04:46:33.838Z,0
2022-10-23T04:47:33.935Z,0
2022-10-23T04:48:34.257Z,0
2022-10-23T04:49:34.029Z,0
2022-10-23T04:50:34.267Z,0
2022-10-23T04:51:33.916Z,0
2022-10-23T04:52:36.960Z,0
2022-10-23T04:53:34.196Z,0
2022-10-23T04:54:33.931Z,0
2022-10-23T04:55:33.903Z,0
2022-10-23T04:56:33.835Z,0
2022-10-23T04:57:33.921Z,0
2022-10-23T04:58:34.189Z,0
2022-10-23T04:59:33.928Z,0
2022-10-23T05:00:34.011Z,0
2022-10-23T05:01:34.087Z,0
2022-10-23T05:02:33.805Z,0
2022-10-23T05:03:39.885Z,0
2022-10-23T05:04:33.913Z,0
2022-10-23T05:05:34.262Z,0
2022-10-23T05:06:33.916Z,0
2022-10-23T05:07:33.830Z,0
2022-10-23T05:08:34.268Z,0
2022-10-23T05:09:33.913Z,0
2022-10-23T05:10:33.957Z,0
2022-10-23T05:11:34.002Z,0
2022-10-23T05:12:33.901Z,0
2022-10-23T05:13:34.262Z,0
2022-10-23T05:14:36.897Z,0
2022-10-23T05:15:34.146Z,0
2022-10-23T05:16:33.902Z,0
2022-10-23T05:17:33.954Z,0
2022-10-23T05:18:33.902Z,0
2022-10-23T05:19:33.969Z,0
2022-10-23T05:20:34.196Z,0
2022-10-23T05:21:33.936Z,0
2022-10-23T05:22:34.042Z,0
2022-10-23T05:23:34.189Z,0
2022-10-23T05:24:33.913Z,0
2022-10-23T05:25:36.853Z,0
2022-10-23T05:26:33.909Z,0
2022-10-23T05:27:33.919Z,0
2022-10-23T05:28:33.867Z,0
2022-10-23T05:29:33.830Z,0
2022-10-23T05:30:33.833Z,0
2022-10-23T05:31:33.839Z,0
2022-10-23T05:32:33.834Z,0
2022-10-23T05:33:33.942Z,0
2022-10-23T05:34:33.930Z,0
2022-10-23T05:35:34.198Z,0
2022-10-23T05:36:37.008Z,0
2022-10-23T05:37:34.019Z,0
2022-10-23T05:38:34.261Z,0
2022-10-23T05:39:33.945Z,0
2022-10-23T05:40:34.043Z,0
2022-10-23T05:41:34.041Z,0
2022-10-23T05:42:35.237Z,0
2022-10-23T05:43:34.266Z,0
2022-10-23T05:44:33.929Z,0
2022-10-23T05:45:33.861Z,0
2022-10-23T05:46:33.960Z,0
2022-10-23T05:47:36.945Z,0
2022-10-23T05:48:35.353Z,0
2022-10-23T05:49:33.956Z,0
2022-10-23T05:50:34.259Z,0
2022-10-23T05:51:33.899Z,0
2022-10-23T05:52:33.835Z,0
2022-10-23T05:53:36.167Z,0
2022-10-23T05:54:33.910Z,0
2022-10-23T05:55:33.950Z,0
2022-10-23T05:56:33.968Z,0
2022-10-23T05:57:33.980Z,0
2022-10-23T05:58:39.920Z,0
2022-10-23T05:59:33.960Z,0
2022-10-23T06:00:33.954Z,0
2022-10-23T06:01:34.113Z,0
2022-10-23T06:02:33.951Z,0
2022-10-23T06:03:33.914Z,0
2022-10-23T06:04:33.973Z,0
2022-10-23T06:05:34.309Z,0
2022-10-23T06:06:34.001Z,0
2022-10-23T06:07:35.859Z,0
2022-10-23T06:08:34.185Z,0
2022-10-23T06:09:36.860Z,0
2022-10-23T06:10:33.912Z,0
2022-10-23T06:11:33.846Z,0
2022-10-23T06:12:33.960Z,0
2022-10-23T06:13:34.189Z,0
2022-10-23T06:14:34.030Z,0
2022-10-23T06:15:33.828Z,0
2022-10-23T06:16:33.871Z,0
2022-10-23T06:17:33.851Z,0
2022-10-23T06:18:34.263Z,0
2022-10-23T06:19:34.018Z,0
2022-10-23T06:20:39.833Z,0
2022-10-23T06:21:33.949Z,0
2022-10-23T06:22:33.923Z,0
2022-10-23T06:23:34.308Z,0
2022-10-23T06:24:33.933Z,0
2022-10-23T06:25:33.972Z,0
2022-10-23T06:26:33.977Z,0
2022-10-23T06:27:33.842Z,0
2022-10-23T06:28:34.258Z,0
2022-10-23T06:29:34.017Z,0
2022-10-23T06:30:34.032Z,0
2022-10-23T06:31:36.964Z,0
2022-10-23T06:32:34.057Z,0
2022-10-23T06:33:34.184Z,0
2022-10-23T06:34:33.912Z,0
2022-10-23T06:35:34.262Z,0
2022-10-23T06:36:33.918Z,0
2022-10-23T06:37:33.946Z,0
2022-10-23T06:38:34.265Z,0
2022-10-23T06:39:33.918Z,0
2022-10-23T06:40:34.010Z,0
2022-10-23T06:41:33.979Z,0
2022-10-23T06:42:36.921Z,0
2022-10-23T06:43:34.187Z,0
2022-10-23T06:44:34.006Z,0
2022-10-23T06:45:34.033Z,0
2022-10-23T06:46:33.936Z,0
2022-10-23T06:47:33.906Z,0
2022-10-23T06:48:39.924Z,0
2022-10-23T06:49:33.905Z,0
2022-10-23T06:50:34.265Z,0
2022-10-23T06:51:33.895Z,0
2022-10-23T06:52:46.507Z,0
2022-10-23T06:53:33.955Z,0
2022-10-23T06:54:33.836Z,0
2022-10-23T06:55:33.942Z,0
2022-10-23T06:56:33.834Z,0
2022-10-23T06:57:33.851Z,0
2022-10-23T06:58:34.418Z,0
2022-10-23T06:59:36.949Z,0
2022-10-23T07:00:33.990Z,0
2022-10-23T07:01:34.169Z,0
2022-10-23T07:02:33.967Z,0
2022-10-23T07:03:33.934Z,0
2022-10-23T07:04:33.925Z,0
2022-10-23T07:05:33.960Z,0
2022-10-23T07:06:33.838Z,0
2022-10-23T07:07:33.827Z,0
2022-10-23T07:08:33.952Z,0
2022-10-23T07:09:33.898Z,0
2022-10-23T07:10:36.919Z,0
2022-10-23T07:11:34.045Z,0
2022-10-23T07:12:33.967Z,0
2022-10-23T07:13:33.933Z,0
2022-10-23T07:14:33.940Z,0
2022-10-23T07:15:33.933Z,0
2022-10-23T07:16:33.863Z,0
2022-10-23T07:17:33.972Z,0
2022-10-23T07:19:42.173Z,0
2022-10-23T07:20:42.114Z,0
2022-10-23T07:21:42.194Z,0
2022-10-23T07:22:42.490Z,0
2022-10-23T07:23:42.515Z,0
2022-10-23T07:24:45.238Z,0
2022-10-23T07:25:42.270Z,0
2022-10-23T07:26:42.313Z,0
2022-10-23T07:27:42.432Z,0
2022-10-23T07:28:42.494Z,0
2022-10-23T07:29:42.287Z,0
2022-10-23T07:30:42.078Z,0
2022-10-23T07:31:42.179Z,0
2022-10-23T07:32:42.177Z,0
2022-10-23T07:33:42.133Z,0
2022-10-23T07:34:42.186Z,0
2022-10-23T07:35:48.186Z,0
2022-10-23T07:36:42.237Z,0
2022-10-23T07:37:42.260Z,0
2022-10-23T07:38:42.503Z,0
2022-10-23T07:39:42.067Z,0
2022-10-23T07:40:42.060Z,0
2022-10-23T07:41:42.069Z,0
2022-10-23T07:42:42.069Z,0
2022-10-23T07:43:42.494Z,0
2022-10-23T07:44:42.056Z,0
2022-10-23T07:45:42.147Z,0
2022-10-23T07:46:45.180Z,0
2022-10-23T07:47:42.508Z,0
2022-10-23T07:48:42.289Z,0
2022-10-23T07:49:42.284Z,0
2022-10-23T07:50:42.470Z,0
2022-10-23T07:51:42.196Z,0
2022-10-23T07:52:42.513Z,0
2022-10-23T07:53:42.499Z,0
2022-10-23T07:54:42.153Z,0
2022-10-23T07:55:42.199Z,0
2022-10-23T07:56:42.224Z,0
2022-10-23T07:57:45.233Z,0
2022-10-23T07:58:42.419Z,0
2022-10-23T07:59:42.728Z,0
2022-10-23T08:00:42.203Z,0
2022-10-23T08:01:42.390Z,0
2022-10-23T08:02:42.529Z,0
2022-10-23T08:03:42.121Z,0
2022-10-23T08:04:42.207Z,0
2022-10-23T08:05:42.418Z,0
2022-10-23T08:06:42.154Z,86.6494140625
2022-10-23T08:07:42.049Z,86.4580078125
2022-10-23T08:08:48.153Z,85.9189453125
2022-10-23T08:09:42.269Z,85.52734375
2022-10-23T08:10:42.153Z,84.322265625
2022-10-23T08:11:42.124Z,84.84765625
2022-10-23T08:12:42.455Z,85.4306640625
2022-10-23T08:13:42.420Z,84.560546875
2022-10-23T08:14:42.092Z,85.216796875
2022-10-23T08:15:42.200Z,85.62109375
2022-10-23T08:16:42.180Z,85.435546875
2022-10-23T08:17:42.515Z,85.5595703125
2022-10-23T08:18:42.455Z,85.203125
2022-10-23T08:19:45.083Z,83.6357421875
2022-10-23T08:20:42.582Z,83.9052734375
2022-10-23T08:21:42.273Z,84.470703125
2022-10-23T08:22:42.216Z,84.16015625
2022-10-23T08:23:42.498Z,83.76953125
2022-10-23T08:24:42.252Z,83.6201171875
2022-10-23T08:25:42.043Z,83.2451171875
2022-10-23T08:26:42.043Z,82.328125
2022-10-23T08:27:42.355Z,82.2470703125
2022-10-23T08:28:42.496Z,82.765625
2022-10-23T08:29:42.174Z,82.66796875
2022-10-23T08:30:45.181Z,82.1689453125
2022-10-23T08:31:42.161Z,81.583984375
2022-10-23T08:32:42.073Z,81.046875
2022-10-23T08:33:42.556Z,80.283203125
2022-10-23T08:34:42.240Z,80.1123046875
2022-10-23T08:35:42.493Z,80.193359375
2022-10-23T08:36:42.052Z,79.849609375
2022-10-23T08:37:42.379Z,79.138671875
2022-10-23T08:38:42.487Z,77.30859375
2022-10-23T08:39:42.145Z,77.59765625
2022-10-23T08:40:42.076Z,77.849609375
2022-10-23T08:41:45.325Z,77.322265625
2022-10-23T08:42:42.623Z,76.8583984375
2022-10-23T08:43:42.485Z,76.2294921875
2022-10-23T08:44:42.103Z,75.5322265625
2022-10-23T08:45:42.203Z,75.5009765625
2022-10-23T08:46:42.153Z,76.271484375
2022-10-23T08:47:42.157Z,76.4345703125
2022-10-23T08:48:42.553Z,76.1318359375
2022-10-23T08:49:42.282Z,75.6123046875
2022-10-23T08:50:42.559Z,75.244140625
2022-10-23T08:51:42.161Z,74.9765625
2022-10-23T08:52:45.467Z,74.9150390625
2022-10-23T08:53:42.136Z,75.537109375
2022-10-23T08:54:42.282Z,75.0625
2022-10-23T08:55:42.064Z,75.2685546875
2022-10-23T08:56:42.209Z,75.6123046875
2022-10-23T08:57:43.498Z,75.3564453125
2022-10-23T08:58:42.237Z,75.4375
2022-10-23T08:59:42.156Z,75.4482421875
2022-10-23T09:00:42.109Z,75.115234375
2022-10-23T09:01:42.420Z,74.9423828125
2022-10-23T09:02:42.579Z,74.69140625
2022-10-23T09:03:48.174Z,73.9814453125
2022-10-23T09:04:42.150Z,73.880859375
2022-10-23T09:05:42.491Z,73.1669921875
2022-10-23T09:06:42.223Z,73.1474609375
2022-10-23T09:07:42.334Z,72.978515625
2022-10-23T09:08:42.492Z,71.9951171875
2022-10-23T09:09:42.163Z,72.9033203125
2022-10-23T09:10:42.062Z,72.5859375
2022-10-23T09:11:42.066Z,72.166015625
2022-10-23T09:12:42.047Z,72.197265625
2022-10-23T09:13:42.488Z,71.7001953125
2022-10-23T09:14:45.107Z,70.98046875
2022-10-23T09:15:42.160Z,70.2109375
2022-10-23T09:16:42.061Z,69.8798828125
2022-10-23T09:17:42.472Z,69.623046875
2022-10-23T09:18:42.056Z,69.6298828125
2022-10-23T09:19:42.192Z,69.2412109375
2022-10-23T09:20:42.417Z,70.5029296875
2022-10-23T09:21:42.073Z,71.6396484375
2022-10-23T09:22:42.079Z,72.28125
2022-10-23T09:23:42.491Z,72.5224609375
2022-10-23T09:24:42.158Z,72.2958984375
2022-10-23T09:25:45.181Z,72.3359375
2022-10-23T09:26:42.211Z,71.8623046875
2022-10-23T09:27:42.346Z,71.826171875
2022-10-23T09:28:42.506Z,71.6484375
2022-10-23T09:29:42.250Z,71.5576171875
2022-10-23T09:30:42.283Z,71.748046875
2022-10-23T09:31:42.163Z,71.4208984375
2022-10-23T09:32:42.178Z,70.8388671875
2022-10-23T09:33:42.273Z,70.9052734375
2022-10-23T09:34:42.188Z,71.146484375
2022-10-23T09:35:42.076Z,70.619140625
2022-10-23T09:36:45.197Z,70.1513671875
2022-10-23T09:37:42.505Z,70.2822265625
2022-10-23T09:38:42.537Z,69.7861328125
2022-10-23T09:39:42.278Z,69.6171875
2022-10-23T09:40:42.275Z,69.0693359375
2022-10-23T09:41:42.220Z,68.8232421875
2022-10-23T09:42:42.094Z,68.7509765625
2022-10-23T09:43:42.495Z,68.6806640625
2022-10-23T09:44:42.201Z,67.8427734375
2022-10-23T09:45:42.277Z,68.1630859375
2022-10-23T09:46:42.331Z,67.421875
2022-10-23T09:47:45.499Z,68.2978515625
2022-10-23T09:48:42.478Z,69.1083984375
2022-10-23T09:49:42.175Z,69.6611328125
2022-10-23T09:50:42.132Z,69.7548828125
2022-10-23T09:51:42.128Z,69.9912109375
2022-10-23T09:52:42.187Z,69.390625
2022-10-23T09:53:42.269Z,68.08984375
2022-10-23T09:54:42.077Z,67.1298828125
2022-10-23T09:55:42.215Z,66.78125
2022-10-23T09:56:42.372Z,66.052734375
2022-10-23T09:57:42.580Z,65.2578125
2022-10-23T09:58:48.223Z,63.9423828125
2022-10-23T09:59:42.355Z,63.2509765625
2022-10-23T10:00:42.296Z,62.6298828125
2022-10-23T10:01:42.434Z,62.0908203125
2022-10-23T10:02:42.229Z,62.009765625
2022-10-23T10:03:42.442Z,61.9140625
2022-10-23T10:04:42.071Z,61.349609375
2022-10-23T10:05:42.165Z,61.9423828125
2022-10-23T10:07:49.489Z,63.6455078125
2022-10-23T10:08:51.871Z,63.654296875
2022-10-23T10:09:49.643Z,63.48046875
2022-10-23T10:10:49.576Z,62.4736328125
2022-10-23T10:11:49.520Z,62.0595703125
2022-10-23T10:12:52.577Z,61.2236328125
2022-10-23T10:13:49.679Z,59.8427734375
2022-10-23T10:14:49.551Z,59.3984375
2022-10-23T10:15:49.582Z,59.525390625
2022-10-23T10:16:49.679Z,60.02734375
2022-10-23T10:17:49.895Z,58.9609375
2022-10-23T10:18:49.851Z,59.3681640625
2022-10-23T10:19:49.548Z,58.818359375
2022-10-23T10:20:49.653Z,58.5234375
2022-10-23T10:21:49.577Z,57.66796875
2022-10-23T10:22:49.431Z,58.72265625
2022-10-23T10:23:52.582Z,59.8115234375
2022-10-23T10:24:49.601Z,60.041015625
2022-10-23T10:25:52.147Z,60.439453125
2022-10-23T10:26:49.449Z,59.8212890625
2022-10-23T10:27:49.433Z,60.162109375
2022-10-23T10:28:49.423Z,60.2646484375
2022-10-23T10:29:49.443Z,59.521484375
2022-10-23T10:30:49.444Z,60.25
2022-10-23T10:31:52.244Z,60.24609375
2022-10-23T10:32:49.421Z,59.7763671875
2022-10-23T10:33:49.545Z,60.8212890625
2022-10-23T10:34:52.590Z,61.73046875
2022-10-23T10:35:49.649Z,62.3017578125
2022-10-23T10:36:49.639Z,63.033203125
2022-10-23T10:37:49.973Z,63.0859375
2022-10-23T10:38:49.642Z,63.517578125
2022-10-23T10:39:49.511Z,63.14453125
2022-10-23T10:40:49.524Z,63.111328125
2022-10-23T10:41:49.556Z,63.3828125
2022-10-23T10:42:49.649Z,63.2919921875
2022-10-23T10:43:49.554Z,63.892578125
2022-10-23T10:44:49.545Z,64.1298828125
2022-10-23T10:45:52.593Z,63.1591796875
2022-10-23T10:46:49.647Z,63.19140625
2022-10-23T10:47:49.629Z,62.5234375
2022-10-23T10:48:50.004Z,62.84375
2022-10-23T10:49:49.777Z,62.732421875
2022-10-23T10:50:50.171Z,61.9775390625
2022-10-23T10:51:49.435Z,61.2998046875
2022-10-23T10:52:49.517Z,60.6376953125
2022-10-23T10:53:49.504Z,60.2109375
2022-10-23T10:54:49.612Z,60.6015625
2022-10-23T10:55:49.496Z,61.7177734375
2022-10-23T10:56:52.525Z,62.546875
2022-10-23T10:57:49.633Z,62.6806640625
2022-10-23T10:58:49.801Z,63.083984375
2022-10-23T10:59:49.493Z,63.6455078125
2022-10-23T11:00:49.563Z,63.80859375
2022-10-23T11:01:49.723Z,63.7724609375
2022-10-23T11:02:49.445Z,63.8828125
2022-10-23T11:03:49.874Z,64.291015625
2022-10-23T11:04:49.611Z,64.7724609375
2022-10-23T11:05:49.866Z,65.0927734375
2022-10-23T11:06:49.624Z,65.55078125
2022-10-23T11:07:52.562Z,65.39453125
2022-10-23T11:08:57.466Z,65.29296875
2022-10-23T11:09:49.517Z,65.62890625
2022-10-23T11:10:49.432Z,66.64453125
2022-10-23T11:11:49.427Z,67.9482421875
2022-10-23T11:12:49.526Z,68.2421875
2022-10-23T11:13:49.449Z,68.302734375
2022-10-23T11:14:50.325Z,68.279296875
2022-10-23T11:15:49.552Z,67.7138671875
2022-10-23T11:16:49.452Z,67.5400390625
2022-10-23T11:17:49.508Z,66.7109375
2022-10-23T11:18:52.525Z,66.845703125
2022-10-23T11:19:49.615Z,66.208984375
2022-10-23T11:20:49.553Z,66.0224609375
2022-10-23T11:21:49.437Z,65.30078125
2022-10-23T11:22:49.653Z,65.1484375
2022-10-23T11:23:49.799Z,64.4736328125
2022-10-23T11:24:50.176Z,63.56640625
2022-10-23T11:25:49.518Z,62.65625
2022-10-23T11:26:49.612Z,61.30078125
2022-10-23T11:27:49.541Z,60.923828125
2022-10-23T11:28:49.653Z,60.787109375
2022-10-23T11:29:52.464Z,60.357421875
2022-10-23T11:30:49.631Z,59.8251953125
2022-10-23T11:31:49.521Z,59.00390625
2022-10-23T11:32:49.690Z,57.916015625
2022-10-23T11:33:49.658Z,58.30859375
2022-10-23T11:34:49.511Z,58.310546875
2022-10-23T11:35:49.469Z,58.337890625
2022-10-23T11:36:49.433Z,58.076171875
2022-10-23T11:37:49.439Z,57.88671875
2022-10-23T11:38:49.967Z,57.8857421875
2022-10-23T11:39:49.647Z,57.9755859375
2022-10-23T11:40:52.551Z,58.615234375
2022-10-23T11:41:49.575Z,58.92578125
2022-10-23T11:42:49.545Z,58.095703125
2022-10-23T11:43:49.834Z,57.083984375
2022-10-23T11:44:49.442Z,56.0244140625
2022-10-23T11:45:49.453Z,55.326171875
2022-10-23T11:46:49.437Z,54.943359375
2022-10-23T11:47:49.527Z,54.6630859375
2022-10-23T11:48:49.569Z,54.6279296875
2022-10-23T11:49:49.508Z,54.2265625
2022-10-23T11:50:49.569Z,53.8525390625
2022-10-23T11:51:52.593Z,53.5517578125
2022-10-23T11:53:12.595Z,53.283203125
2022-10-23T11:53:49.843Z,52.81640625
2022-10-23T11:54:49.602Z,52.6513671875
2022-10-23T11:55:49.436Z,52.8515625
2022-10-23T11:56:49.436Z,52.8583984375
2022-10-23T11:57:49.425Z,53.0615234375
2022-10-23T11:58:49.878Z,53.28515625
2022-10-23T11:59:49.556Z,53.404296875
2022-10-23T12:00:49.441Z,54.37109375
2022-10-23T12:01:49.557Z,54.11328125
2022-10-23T12:02:57.037Z,53.3349609375
2022-10-23T12:03:49.808Z,52.625
2022-10-23T12:04:49.477Z,52.7841796875
2022-10-23T12:05:49.923Z,52.01953125
2022-10-23T12:06:49.705Z,51.59375
2022-10-23T12:07:49.600Z,51.8955078125
2022-10-23T12:08:55.544Z,51.0361328125
2022-10-23T12:09:49.564Z,50.341796875
2022-10-23T12:10:49.437Z,49.484375
2022-10-23T12:11:49.527Z,48.205078125
2022-10-23T12:12:49.540Z,46.51953125
2022-10-23T12:13:49.799Z,46.36328125
2022-10-23T12:14:49.527Z,45.8310546875
2022-10-23T12:15:49.548Z,45.3642578125
2022-10-23T12:16:49.521Z,45.3857421875
2022-10-23T12:17:49.590Z,45.4091796875
2022-10-23T12:18:49.805Z,45.4130859375
2022-10-23T12:19:52.467Z,46.552734375
2022-10-23T12:20:49.802Z,46.587890625
2022-10-23T12:21:49.507Z,46.677734375
2022-10-23T12:22:49.447Z,46.9306640625
2022-10-23T12:23:49.431Z,47.03125
2022-10-23T12:24:49.645Z,47.5537109375
2022-10-23T12:25:49.422Z,48.0166015625
2022-10-23T12:26:49.611Z,47.7158203125
2022-10-23T12:27:49.660Z,48.5263671875
2022-10-23T12:28:49.653Z,49.548828125
2022-10-23T12:29:49.609Z,50.73828125
2022-10-23T12:30:52.616Z,51.2470703125
2022-10-23T12:31:49.662Z,51.986328125
2022-10-23T12:32:49.606Z,52.0791015625
2022-10-23T12:33:49.992Z,51.0947265625
2022-10-23T12:34:49.616Z,51.62109375
2022-10-23T12:35:49.539Z,51.6240234375
2022-10-23T12:36:49.425Z,51.341796875
2022-10-23T12:37:49.655Z,51.0546875
2022-10-23T12:38:49.803Z,51.046875
2022-10-23T12:39:49.493Z,49.857421875
2022-10-23T12:40:49.444Z,50.388671875
2022-10-23T12:41:52.777Z,50.9296875
2022-10-23T12:42:49.542Z,50.8525390625
2022-10-23T12:43:49.875Z,51.150390625
2022-10-23T12:44:49.632Z,50.9970703125
2022-10-23T12:45:49.427Z,50.9189453125
2022-10-23T12:46:49.535Z,50.8671875
2022-10-23T12:47:49.723Z,50.2607421875
2022-10-23T12:48:49.875Z,50.0400390625
2022-10-23T12:49:49.652Z,50.443359375
2022-10-23T12:50:49.807Z,50.537109375
2022-10-23T12:51:49.529Z,50.134765625
2022-10-23T12:52:52.568Z,50.3427734375
2022-10-23T12:53:49.656Z,50.515625
2022-10-23T12:54:49.502Z,51.224609375
2022-10-23T12:55:49.610Z,52.681640625